sensor_id;sensor_type;location;lat;lon;timestamp;P1;durP1;ratioP1;P2;durP2;ratioP2
38083;SDS011;23894;51.466;7.444;2023-03-31T00:00:44;10.15;;;2.75;;
38083;SDS011;23894;51.466;7.444;2023-03-31T00:02:48;9.95;;;2.40;;
38083;SDS011;23894;51.466;7.444;2023-03-31T00:04:54;10.23;;;2.38;;
38083;SDS011;23894;51.466;7.444;2023-03-31T00:06:58;8.52;;;2.50;;
38083;SDS011;23894;51.466;7.444;2023-03-31T00:09:00;10.55;;;2.85;;
38083;SDS011;23894;51.466;7.444;2023-03-31T00:11:03;7.35;;;2.22;;
38083;SDS011;23894;51.466;7.444;2023-03-31T00:13:04;9.48;;;2.47;;
38083;SDS011;23894;51.466;7.444;2023-03-31T00:15:06;6.90;;;2.20;;
38083;SDS011;23894;51.466;7.444;2023-03-31T00:17:09;7.45;;;2.33;;
38083;SDS011;23894;51.466;7.444;2023-03-31T00:19:10;7.90;;;2.40;;
38083;SDS011;23894;51.466;7.444;2023-03-31T00:21:23;9.18;;;2.38;;
38083;SDS011;23894;51.466;7.444;2023-03-31T00:23:32;7.22;;;2.13;;
38083;SDS011;23894;51.466;7.444;2023-03-31T00:25:39;8.85;;;2.88;;
38083;SDS011;23894;51.466;7.444;2023-03-31T00:27:41;9.60;;;2.40;;
38083;SDS011;23894;51.466;7.444;2023-03-31T00:29:58;8.40;;;2.50;;
38083;SDS011;23894;51.466;7.444;2023-03-31T00:32:00;7.45;;;2.30;;
38083;SDS011;23894;51.466;7.444;2023-03-31T00:36:03;7.25;;;2.67;;
38083;SDS011;23894;51.466;7.444;2023-03-31T00:38:07;11.13;;;2.50;;
38083;SDS011;23894;51.466;7.444;2023-03-31T00:40:14;9.85;;;2.20;;
38083;SDS011;23894;51.466;7.444;2023-03-31T00:42:16;8.32;;;2.42;;
38083;SDS011;23894;51.466;7.444;2023-03-31T00:44:21;8.48;;;2.33;;
38083;SDS011;23894;51.466;7.444;2023-03-31T00:46:31;8.90;;;2.22;;
38083;SDS011;23894;51.466;7.444;2023-03-31T00:48:33;8.52;;;2.10;;
38083;SDS011;23894;51.466;7.444;2023-03-31T00:50:45;6.10;;;1.95;;
38083;SDS011;23894;51.466;7.444;2023-03-31T00:52:50;8.02;;;2.08;;
38083;SDS011;23894;51.466;7.444;2023-03-31T00:54:58;6.35;;;2.10;;
38083;SDS011;23894;51.466;7.444;2023-03-31T00:57:01;8.45;;;2.20;;
38083;SDS011;23894;51.466;7.444;2023-03-31T00:59:08;7.78;;;2.60;;
38083;SDS011;23894;51.466;7.444;2023-03-31T01:01:13;5.70;;;2.20;;
38083;SDS011;23894;51.466;7.444;2023-03-31T01:03:17;9.30;;;2.30;;
38083;SDS011;23894;51.466;7.444;2023-03-31T01:05:24;7.90;;;2.30;;
38083;SDS011;23894;51.466;7.444;2023-03-31T01:07:28;10.15;;;2.28;;
38083;SDS011;23894;51.466;7.444;2023-03-31T01:09:43;8.88;;;2.22;;
38083;SDS011;23894;51.466;7.444;2023-03-31T01:11:47;7.72;;;2.30;;
38083;SDS011;23894;51.466;7.444;2023-03-31T01:13:50;7.38;;;2.28;;
38083;SDS011;23894;51.466;7.444;2023-03-31T01:15:56;10.57;;;2.35;;
38083;SDS011;23894;51.466;7.444;2023-03-31T01:18:00;8.13;;;2.38;;
38083;SDS011;23894;51.466;7.444;2023-03-31T01:28:54;11.45;;;3.10;;
38083;SDS011;23894;51.466;7.444;2023-03-31T01:31:10;9.65;;;2.80;;
38083;SDS011;23894;51.466;7.444;2023-03-31T01:40:05;8.77;;;2.42;;
38083;SDS011;23894;51.466;7.444;2023-03-31T01:49:16;8.82;;;2.53;;
38083;SDS011;23894;51.466;7.444;2023-03-31T01:54:42;11.00;;;2.42;;
38083;SDS011;23894;51.466;7.444;2023-03-31T01:56:21;7.93;;;2.35;;
38083;SDS011;23894;51.466;7.444;2023-03-31T01:58:40;9.68;;;2.72;;
38083;SDS011;23894;51.466;7.444;2023-03-31T02:00:44;9.50;;;2.90;;
38083;SDS011;23894;51.466;7.444;2023-03-31T02:03:07;10.63;;;2.70;;
38083;SDS011;23894;51.466;7.444;2023-03-31T02:05:25;7.75;;;2.53;;
38083;SDS011;23894;51.466;7.444;2023-03-31T02:07:33;9.00;;;2.80;;
38083;SDS011;23894;51.466;7.444;2023-03-31T02:09:48;8.10;;;2.30;;
38083;SDS011;23894;51.466;7.444;2023-03-31T02:11:50;9.43;;;2.53;;
38083;SDS011;23894;51.466;7.444;2023-03-31T02:13:56;8.15;;;2.08;;
38083;SDS011;23894;51.466;7.444;2023-03-31T02:16:04;9.25;;;2.50;;
38083;SDS011;23894;51.466;7.444;2023-03-31T02:18:10;8.82;;;2.33;;
38083;SDS011;23894;51.466;7.444;2023-03-31T02:20:26;9.20;;;2.40;;
38083;SDS011;23894;51.466;7.444;2023-03-31T02:22:30;8.70;;;2.40;;
38083;SDS011;23894;51.466;7.444;2023-03-31T02:24:34;8.75;;;2.40;;
38083;SDS011;23894;51.466;7.444;2023-03-31T02:26:41;10.35;;;2.85;;
38083;SDS011;23894;51.466;7.444;2023-03-31T02:28:44;9.43;;;2.58;;
38083;SDS011;23894;51.466;7.444;2023-03-31T02:33:08;8.85;;;2.50;;
38083;SDS011;23894;51.466;7.444;2023-03-31T02:35:14;9.45;;;2.90;;
38083;SDS011;23894;51.466;7.444;2023-03-31T02:37:16;10.50;;;2.53;;
38083;SDS011;23894;51.466;7.444;2023-03-31T02:39:22;9.07;;;2.53;;
38083;SDS011;23894;51.466;7.444;2023-03-31T02:41:29;7.53;;;2.15;;
38083;SDS011;23894;51.466;7.444;2023-03-31T02:43:31;8.75;;;2.67;;
38083;SDS011;23894;51.466;7.444;2023-03-31T02:45:47;10.10;;;2.50;;
38083;SDS011;23894;51.466;7.444;2023-03-31T02:47:49;9.45;;;2.67;;
38083;SDS011;23894;51.466;7.444;2023-03-31T02:49:54;8.70;;;2.45;;
38083;SDS011;23894;51.466;7.444;2023-03-31T03:01:23;10.27;;;3.00;;
38083;SDS011;23894;51.466;7.444;2023-03-31T03:03:34;10.15;;;3.08;;
38083;SDS011;23894;51.466;7.444;2023-03-31T03:10:10;11.77;;;3.20;;
38083;SDS011;23894;51.466;7.444;2023-03-31T03:12:26;10.95;;;3.03;;
38083;SDS011;23894;51.466;7.444;2023-03-31T03:16:42;10.32;;;2.95;;
38083;SDS011;23894;51.466;7.444;2023-03-31T03:18:59;13.73;;;3.67;;
38083;SDS011;23894;51.466;7.444;2023-03-31T03:21:02;12.40;;;3.22;;
38083;SDS011;23894;51.466;7.444;2023-03-31T03:23:05;12.55;;;2.85;;
38083;SDS011;23894;51.466;7.444;2023-03-31T03:25:10;10.05;;;3.40;;
38083;SDS011;23894;51.466;7.444;2023-03-31T03:27:19;11.90;;;3.17;;
38083;SDS011;23894;51.466;7.444;2023-03-31T03:29:28;12.57;;;3.15;;
38083;SDS011;23894;51.466;7.444;2023-03-31T03:31:32;9.85;;;2.92;;
38083;SDS011;23894;51.466;7.444;2023-03-31T03:33:34;14.98;;;3.05;;
38083;SDS011;23894;51.466;7.444;2023-03-31T03:35:36;16.75;;;3.00;;
38083;SDS011;23894;51.466;7.444;2023-03-31T03:37:40;13.38;;;2.67;;
38083;SDS011;23894;51.466;7.444;2023-03-31T03:39:44;9.55;;;2.72;;
38083;SDS011;23894;51.466;7.444;2023-03-31T03:41:48;12.85;;;3.10;;
38083;SDS011;23894;51.466;7.444;2023-03-31T03:43:50;11.07;;;2.83;;
38083;SDS011;23894;51.466;7.444;2023-03-31T03:45:52;9.45;;;2.90;;
38083;SDS011;23894;51.466;7.444;2023-03-31T03:47:57;10.10;;;2.40;;
38083;SDS011;23894;51.466;7.444;2023-03-31T03:50:00;11.82;;;3.00;;
38083;SDS011;23894;51.466;7.444;2023-03-31T03:52:04;12.38;;;3.05;;
38083;SDS011;23894;51.466;7.444;2023-03-31T03:54:06;10.18;;;2.80;;
38083;SDS011;23894;51.466;7.444;2023-03-31T03:56:09;12.60;;;2.95;;
38083;SDS011;23894;51.466;7.444;2023-03-31T03:58:13;9.95;;;2.85;;
38083;SDS011;23894;51.466;7.444;2023-03-31T04:00:26;11.13;;;2.70;;
38083;SDS011;23894;51.466;7.444;2023-03-31T04:02:29;13.52;;;3.38;;
38083;SDS011;23894;51.466;7.444;2023-03-31T04:04:34;9.88;;;2.53;;
38083;SDS011;23894;51.466;7.444;2023-03-31T04:06:36;9.15;;;2.30;;
38083;SDS011;23894;51.466;7.444;2023-03-31T04:08:38;10.07;;;2.80;;
38083;SDS011;23894;51.466;7.444;2023-03-31T04:10:44;9.32;;;2.72;;
38083;SDS011;23894;51.466;7.444;2023-03-31T04:12:49;10.82;;;2.60;;
38083;SDS011;23894;51.466;7.444;2023-03-31T04:14:52;9.63;;;2.70;;
38083;SDS011;23894;51.466;7.444;2023-03-31T04:16:55;9.25;;;2.55;;
38083;SDS011;23894;51.466;7.444;2023-03-31T04:19:02;12.80;;;2.97;;
38083;SDS011;23894;51.466;7.444;2023-03-31T04:21:08;11.70;;;3.33;;
38083;SDS011;23894;51.466;7.444;2023-03-31T04:23:13;10.00;;;2.50;;
38083;SDS011;23894;51.466;7.444;2023-03-31T04:25:27;11.55;;;2.67;;
38083;SDS011;23894;51.466;7.444;2023-03-31T04:27:31;9.63;;;2.72;;
38083;SDS011;23894;51.466;7.444;2023-03-31T04:29:45;7.93;;;2.42;;
38083;SDS011;23894;51.466;7.444;2023-03-31T04:31:55;7.85;;;2.55;;
38083;SDS011;23894;51.466;7.444;2023-03-31T04:33:58;9.60;;;2.50;;
38083;SDS011;23894;51.466;7.444;2023-03-31T04:36:02;10.75;;;2.45;;
38083;SDS011;23894;51.466;7.444;2023-03-31T04:38:25;12.85;;;3.47;;
38083;SDS011;23894;51.466;7.444;2023-03-31T04:40:44;8.95;;;2.85;;
38083;SDS011;23894;51.466;7.444;2023-03-31T04:42:46;10.57;;;3.03;;
38083;SDS011;23894;51.466;7.444;2023-03-31T04:44:50;8.98;;;2.70;;
38083;SDS011;23894;51.466;7.444;2023-03-31T04:46:52;9.77;;;2.70;;
38083;SDS011;23894;51.466;7.444;2023-03-31T04:48:54;12.20;;;2.60;;
38083;SDS011;23894;51.466;7.444;2023-03-31T04:51:08;11.98;;;2.47;;
38083;SDS011;23894;51.466;7.444;2023-03-31T04:53:32;7.95;;;2.58;;
38083;SDS011;23894;51.466;7.444;2023-03-31T04:55:35;9.55;;;2.88;;
38083;SDS011;23894;51.466;7.444;2023-03-31T04:57:40;11.15;;;2.80;;
38083;SDS011;23894;51.466;7.444;2023-03-31T04:59:41;9.07;;;2.42;;
38083;SDS011;23894;51.466;7.444;2023-03-31T05:01:44;10.23;;;2.97;;
38083;SDS011;23894;51.466;7.444;2023-03-31T05:03:48;11.02;;;2.55;;
38083;SDS011;23894;51.466;7.444;2023-03-31T05:05:51;11.80;;;2.60;;
38083;SDS011;23894;51.466;7.444;2023-03-31T05:08:04;10.63;;;2.60;;
38083;SDS011;23894;51.466;7.444;2023-03-31T05:10:07;9.27;;;2.60;;
38083;SDS011;23894;51.466;7.444;2023-03-31T05:12:15;11.15;;;2.97;;
38083;SDS011;23894;51.466;7.444;2023-03-31T05:14:17;11.95;;;2.92;;
38083;SDS011;23894;51.466;7.444;2023-03-31T05:16:20;8.90;;;2.75;;
38083;SDS011;23894;51.466;7.444;2023-03-31T05:18:21;11.05;;;2.60;;
38083;SDS011;23894;51.466;7.444;2023-03-31T05:20:23;12.02;;;2.70;;
38083;SDS011;23894;51.466;7.444;2023-03-31T05:22:25;8.30;;;2.40;;
38083;SDS011;23894;51.466;7.444;2023-03-31T05:26:30;10.05;;;2.70;;
38083;SDS011;23894;51.466;7.444;2023-03-31T05:28:34;9.05;;;2.72;;
38083;SDS011;23894;51.466;7.444;2023-03-31T05:30:36;8.48;;;2.60;;
38083;SDS011;23894;51.466;7.444;2023-03-31T05:32:37;9.35;;;2.50;;
38083;SDS011;23894;51.466;7.444;2023-03-31T05:34:41;9.40;;;2.83;;
38083;SDS011;23894;51.466;7.444;2023-03-31T05:36:44;12.05;;;3.00;;
38083;SDS011;23894;51.466;7.444;2023-03-31T05:38:49;10.38;;;3.22;;
38083;SDS011;23894;51.466;7.444;2023-03-31T05:40:53;11.43;;;2.78;;
38083;SDS011;23894;51.466;7.444;2023-03-31T05:42:56;10.93;;;2.55;;
38083;SDS011;23894;51.466;7.444;2023-03-31T05:44:58;7.63;;;2.78;;
38083;SDS011;23894;51.466;7.444;2023-03-31T05:47:02;9.40;;;2.50;;
38083;SDS011;23894;51.466;7.444;2023-03-31T05:49:05;10.25;;;2.90;;
38083;SDS011;23894;51.466;7.444;2023-03-31T05:51:08;8.95;;;2.35;;
38083;SDS011;23894;51.466;7.444;2023-03-31T05:53:14;7.50;;;2.30;;
38083;SDS011;23894;51.466;7.444;2023-03-31T05:55:18;9.35;;;2.55;;
38083;SDS011;23894;51.466;7.444;2023-03-31T05:57:21;6.97;;;2.35;;
38083;SDS011;23894;51.466;7.444;2023-03-31T05:59:22;7.38;;;2.33;;
38083;SDS011;23894;51.466;7.444;2023-03-31T06:01:26;8.45;;;2.58;;
38083;SDS011;23894;51.466;7.444;2023-03-31T06:03:31;8.40;;;2.40;;
38083;SDS011;23894;51.466;7.444;2023-03-31T06:05:36;9.13;;;2.42;;
38083;SDS011;23894;51.466;7.444;2023-03-31T06:07:40;8.48;;;2.33;;
38083;SDS011;23894;51.466;7.444;2023-03-31T06:09:44;6.63;;;2.38;;
38083;SDS011;23894;51.466;7.444;2023-03-31T06:11:46;8.55;;;2.35;;
38083;SDS011;23894;51.466;7.444;2023-03-31T06:13:50;7.43;;;2.38;;
38083;SDS011;23894;51.466;7.444;2023-03-31T06:15:57;5.90;;;2.22;;
38083;SDS011;23894;51.466;7.444;2023-03-31T06:18:01;8.02;;;2.45;;
38083;SDS011;23894;51.466;7.444;2023-03-31T06:20:02;6.35;;;2.47;;
38083;SDS011;23894;51.466;7.444;2023-03-31T06:22:06;9.20;;;2.30;;
38083;SDS011;23894;51.466;7.444;2023-03-31T06:24:11;7.13;;;2.35;;
38083;SDS011;23894;51.466;7.444;2023-03-31T06:26:15;10.48;;;2.67;;
38083;SDS011;23894;51.466;7.444;2023-03-31T06:28:19;6.20;;;2.08;;
38083;SDS011;23894;51.466;7.444;2023-03-31T06:30:21;8.23;;;2.53;;
38083;SDS011;23894;51.466;7.444;2023-03-31T06:32:23;5.72;;;2.13;;
38083;SDS011;23894;51.466;7.444;2023-03-31T06:34:28;7.65;;;2.22;;
38083;SDS011;23894;51.466;7.444;2023-03-31T06:36:32;8.35;;;2.33;;
38083;SDS011;23894;51.466;7.444;2023-03-31T06:38:36;6.32;;;2.10;;
38083;SDS011;23894;51.466;7.444;2023-03-31T06:40:42;6.03;;;2.10;;
38083;SDS011;23894;51.466;7.444;2023-03-31T06:42:45;7.70;;;2.53;;
38083;SDS011;23894;51.466;7.444;2023-03-31T06:44:47;6.97;;;2.30;;
38083;SDS011;23894;51.466;7.444;2023-03-31T06:46:51;6.57;;;2.33;;
38083;SDS011;23894;51.466;7.444;2023-03-31T06:48:53;7.15;;;2.35;;
38083;SDS011;23894;51.466;7.444;2023-03-31T06:50:58;8.43;;;2.30;;
38083;SDS011;23894;51.466;7.444;2023-03-31T06:53:02;6.25;;;2.20;;
38083;SDS011;23894;51.466;7.444;2023-03-31T06:55:08;6.78;;;2.22;;
38083;SDS011;23894;51.466;7.444;2023-03-31T06:57:12;8.90;;;2.28;;
38083;SDS011;23894;51.466;7.444;2023-03-31T06:59:18;9.88;;;2.22;;
38083;SDS011;23894;51.466;7.444;2023-03-31T07:01:22;8.27;;;2.17;;
38083;SDS011;23894;51.466;7.444;2023-03-31T07:03:29;7.32;;;2.35;;
38083;SDS011;23894;51.466;7.444;2023-03-31T07:05:35;6.20;;;2.17;;
38083;SDS011;23894;51.466;7.444;2023-03-31T07:07:37;10.32;;;2.22;;
38083;SDS011;23894;51.466;7.444;2023-03-31T07:09:43;7.43;;;2.17;;
38083;SDS011;23894;51.466;7.444;2023-03-31T07:11:48;7.40;;;2.13;;
38083;SDS011;23894;51.466;7.444;2023-03-31T07:13:51;12.90;;;2.35;;
38083;SDS011;23894;51.466;7.444;2023-03-31T07:15:54;8.32;;;2.13;;
38083;SDS011;23894;51.466;7.444;2023-03-31T07:17:56;7.18;;;2.05;;
38083;SDS011;23894;51.466;7.444;2023-03-31T07:20:03;8.88;;;2.33;;
38083;SDS011;23894;51.466;7.444;2023-03-31T07:22:13;6.27;;;2.23;;
38083;SDS011;23894;51.466;7.444;2023-03-31T07:24:16;6.05;;;2.38;;
38083;SDS011;23894;51.466;7.444;2023-03-31T07:26:18;7.72;;;2.40;;
38083;SDS011;23894;51.466;7.444;2023-03-31T07:28:25;9.00;;;2.30;;
38083;SDS011;23894;51.466;7.444;2023-03-31T07:30:27;8.60;;;2.17;;
38083;SDS011;23894;51.466;7.444;2023-03-31T07:32:34;7.63;;;1.95;;
38083;SDS011;23894;51.466;7.444;2023-03-31T07:34:43;8.98;;;2.17;;
38083;SDS011;23894;51.466;7.444;2023-03-31T07:38:48;13.98;;;2.08;;
38083;SDS011;23894;51.466;7.444;2023-03-31T07:40:51;7.10;;;1.90;;
38083;SDS011;23894;51.466;7.444;2023-03-31T07:42:53;4.72;;;1.80;;
38083;SDS011;23894;51.466;7.444;2023-03-31T07:45:00;7.35;;;2.13;;
38083;SDS011;23894;51.466;7.444;2023-03-31T07:47:26;6.70;;;2.15;;
38083;SDS011;23894;51.466;7.444;2023-03-31T07:49:29;7.00;;;1.90;;
38083;SDS011;23894;51.466;7.444;2023-03-31T07:51:30;6.32;;;2.10;;
38083;SDS011;23894;51.466;7.444;2023-03-31T07:53:32;6.22;;;1.88;;
38083;SDS011;23894;51.466;7.444;2023-03-31T07:55:35;8.60;;;2.10;;
38083;SDS011;23894;51.466;7.444;2023-03-31T07:57:38;7.22;;;2.15;;
38083;SDS011;23894;51.466;7.444;2023-03-31T07:59:41;6.28;;;1.88;;
38083;SDS011;23894;51.466;7.444;2023-03-31T08:01:45;5.63;;;1.77;;
38083;SDS011;23894;51.466;7.444;2023-03-31T08:03:47;6.40;;;1.80;;
38083;SDS011;23894;51.466;7.444;2023-03-31T08:05:53;7.95;;;2.17;;
38083;SDS011;23894;51.466;7.444;2023-03-31T08:07:55;6.22;;;1.83;;
38083;SDS011;23894;51.466;7.444;2023-03-31T08:09:58;5.00;;;1.77;;
38083;SDS011;23894;51.466;7.444;2023-03-31T08:12:02;7.22;;;2.00;;
38083;SDS011;23894;51.466;7.444;2023-03-31T08:14:05;5.45;;;1.55;;
38083;SDS011;23894;51.466;7.444;2023-03-31T08:16:07;4.90;;;1.60;;
38083;SDS011;23894;51.466;7.444;2023-03-31T08:18:11;8.25;;;2.10;;
38083;SDS011;23894;51.466;7.444;2023-03-31T08:20:14;3.75;;;1.55;;
38083;SDS011;23894;51.466;7.444;2023-03-31T08:22:16;6.65;;;1.83;;
38083;SDS011;23894;51.466;7.444;2023-03-31T08:24:21;8.00;;;2.15;;
38083;SDS011;23894;51.466;7.444;2023-03-31T08:26:22;5.65;;;1.63;;
38083;SDS011;23894;51.466;7.444;2023-03-31T08:28:29;5.13;;;1.73;;
38083;SDS011;23894;51.466;7.444;2023-03-31T08:30:31;4.88;;;2.00;;
38083;SDS011;23894;51.466;7.444;2023-03-31T08:32:35;4.45;;;1.70;;
38083;SDS011;23894;51.466;7.444;2023-03-31T08:34:40;5.13;;;1.58;;
38083;SDS011;23894;51.466;7.444;2023-03-31T08:36:44;6.05;;;1.73;;
38083;SDS011;23894;51.466;7.444;2023-03-31T08:38:49;7.40;;;1.70;;
38083;SDS011;23894;51.466;7.444;2023-03-31T08:41:03;3.83;;;1.40;;
38083;SDS011;23894;51.466;7.444;2023-03-31T08:43:10;4.90;;;1.65;;
38083;SDS011;23894;51.466;7.444;2023-03-31T08:47:33;4.95;;;1.77;;
38083;SDS011;23894;51.466;7.444;2023-03-31T08:49:42;4.25;;;1.60;;
38083;SDS011;23894;51.466;7.444;2023-03-31T08:51:58;4.28;;;1.55;;
38083;SDS011;23894;51.466;7.444;2023-03-31T08:54:10;5.93;;;2.10;;
38083;SDS011;23894;51.466;7.444;2023-03-31T08:56:18;7.90;;;2.08;;
38083;SDS011;23894;51.466;7.444;2023-03-31T09:00:47;6.38;;;1.73;;
38083;SDS011;23894;51.466;7.444;2023-03-31T09:10:17;7.45;;;1.63;;
38083;SDS011;23894;51.466;7.444;2023-03-31T09:14:45;6.05;;;1.80;;
38083;SDS011;23894;51.466;7.444;2023-03-31T09:17:12;7.90;;;2.08;;
38083;SDS011;23894;51.466;7.444;2023-03-31T09:19:26;7.43;;;2.05;;
38083;SDS011;23894;51.466;7.444;2023-03-31T09:21:50;6.53;;;1.83;;
38083;SDS011;23894;51.466;7.444;2023-03-31T09:26:07;6.45;;;2.20;;
38083;SDS011;23894;51.466;7.444;2023-03-31T09:28:20;5.95;;;2.10;;
38083;SDS011;23894;51.466;7.444;2023-03-31T09:30:29;6.88;;;2.20;;
38083;SDS011;23894;51.466;7.444;2023-03-31T09:32:34;7.10;;;1.73;;
38083;SDS011;23894;51.466;7.444;2023-03-31T09:34:37;5.10;;;1.77;;
38083;SDS011;23894;51.466;7.444;2023-03-31T09:36:38;7.15;;;2.03;;
38083;SDS011;23894;51.466;7.444;2023-03-31T09:38:42;5.40;;;1.85;;
38083;SDS011;23894;51.466;7.444;2023-03-31T09:40:46;6.00;;;2.30;;
38083;SDS011;23894;51.466;7.444;2023-03-31T09:42:52;6.32;;;2.00;;
38083;SDS011;23894;51.466;7.444;2023-03-31T09:45:05;7.88;;;2.40;;
38083;SDS011;23894;51.466;7.444;2023-03-31T09:49:43;6.15;;;1.92;;
38083;SDS011;23894;51.466;7.444;2023-03-31T09:51:57;8.25;;;1.88;;
38083;SDS011;23894;51.466;7.444;2023-03-31T09:56:34;6.60;;;2.00;;
38083;SDS011;23894;51.466;7.444;2023-03-31T09:58:47;8.10;;;2.28;;
38083;SDS011;23894;51.466;7.444;2023-03-31T10:01:02;7.95;;;2.00;;
38083;SDS011;23894;51.466;7.444;2023-03-31T10:03:09;7.10;;;1.88;;
38083;SDS011;23894;51.466;7.444;2023-03-31T10:05:25;7.75;;;2.53;;
38083;SDS011;23894;51.466;7.444;2023-03-31T10:07:28;7.75;;;2.20;;
38083;SDS011;23894;51.466;7.444;2023-03-31T10:09:35;8.43;;;2.05;;
38083;SDS011;23894;51.466;7.444;2023-03-31T10:11:50;6.80;;;2.22;;
38083;SDS011;23894;51.466;7.444;2023-03-31T10:14:02;10.98;;;2.28;;
38083;SDS011;23894;51.466;7.444;2023-03-31T10:16:06;8.65;;;2.13;;
38083;SDS011;23894;51.466;7.444;2023-03-31T10:18:18;7.75;;;2.30;;
38083;SDS011;23894;51.466;7.444;2023-03-31T10:20:38;9.57;;;2.20;;
38083;SDS011;23894;51.466;7.444;2023-03-31T10:22:53;7.82;;;2.83;;
38083;SDS011;23894;51.466;7.444;2023-03-31T10:25:06;10.13;;;2.20;;
38083;SDS011;23894;51.466;7.444;2023-03-31T10:27:29;11.70;;;2.90;;
38083;SDS011;23894;51.466;7.444;2023-03-31T10:29:33;6.93;;;2.65;;
38083;SDS011;23894;51.466;7.444;2023-03-31T10:31:36;10.30;;;2.65;;
38083;SDS011;23894;51.466;7.444;2023-03-31T10:33:41;9.23;;;2.83;;
38083;SDS011;23894;51.466;7.444;2023-03-31T10:35:47;11.20;;;3.17;;
38083;SDS011;23894;51.466;7.444;2023-03-31T10:37:55;13.32;;;2.78;;
38083;SDS011;23894;51.466;7.444;2023-03-31T10:40:20;9.27;;;2.90;;
38083;SDS011;23894;51.466;7.444;2023-03-31T10:42:24;11.43;;;2.80;;
38083;SDS011;23894;51.466;7.444;2023-03-31T10:44:37;13.27;;;2.92;;
38083;SDS011;23894;51.466;7.444;2023-03-31T10:46:46;12.48;;;3.28;;
38083;SDS011;23894;51.466;7.444;2023-03-31T10:48:50;14.83;;;3.60;;
38083;SDS011;23894;51.466;7.444;2023-03-31T10:51:00;8.60;;;2.75;;
38083;SDS011;23894;51.466;7.444;2023-03-31T10:53:12;9.48;;;3.08;;
38083;SDS011;23894;51.466;7.444;2023-03-31T10:55:21;13.88;;;3.55;;
38083;SDS011;23894;51.466;7.444;2023-03-31T10:57:33;11.73;;;3.67;;
38083;SDS011;23894;51.466;7.444;2023-03-31T11:06:44;14.40;;;4.05;;
38083;SDS011;23894;51.466;7.444;2023-03-31T11:17:34;16.45;;;4.00;;
38083;SDS011;23894;51.466;7.444;2023-03-31T11:19:53;11.35;;;2.83;;
38083;SDS011;23894;51.466;7.444;2023-03-31T11:22:58;13.13;;;3.30;;
38083;SDS011;23894;51.466;7.444;2023-03-31T11:25:03;12.73;;;3.65;;
38083;SDS011;23894;51.466;7.444;2023-03-31T11:33:39;12.00;;;3.35;;
38083;SDS011;23894;51.466;7.444;2023-03-31T11:36:19;11.35;;;3.03;;
38083;SDS011;23894;51.466;7.444;2023-03-31T11:38:29;15.15;;;3.53;;
38083;SDS011;23894;51.466;7.444;2023-03-31T11:43:01;11.95;;;2.72;;
38083;SDS011;23894;51.466;7.444;2023-03-31T11:45:51;8.40;;;1.65;;
38083;SDS011;23894;51.466;7.444;2023-03-31T11:47:30;11.82;;;2.08;;
38083;SDS011;23894;51.466;7.444;2023-03-31T11:49:45;10.05;;;2.10;;
38083;SDS011;23894;51.466;7.444;2023-03-31T11:51:53;10.57;;;2.35;;
38083;SDS011;23894;51.466;7.444;2023-03-31T11:53:57;8.20;;;2.20;;
38083;SDS011;23894;51.466;7.444;2023-03-31T11:56:11;10.30;;;2.28;;
38083;SDS011;23894;51.466;7.444;2023-03-31T11:58:20;14.75;;;2.30;;
38083;SDS011;23894;51.466;7.444;2023-03-31T12:00:28;13.00;;;2.53;;
38083;SDS011;23894;51.466;7.444;2023-03-31T12:02:52;12.82;;;2.47;;
38083;SDS011;23894;51.466;7.444;2023-03-31T12:04:56;10.25;;;2.17;;
38083;SDS011;23894;51.466;7.444;2023-03-31T12:09:36;9.38;;;2.17;;
38083;SDS011;23894;51.466;7.444;2023-03-31T12:11:46;8.65;;;2.42;;
38083;SDS011;23894;51.466;7.444;2023-03-31T12:16:16;8.68;;;2.38;;
38083;SDS011;23894;51.466;7.444;2023-03-31T12:18:19;9.77;;;2.08;;
38083;SDS011;23894;51.466;7.444;2023-03-31T12:20:28;10.40;;;2.25;;
38083;SDS011;23894;51.466;7.444;2023-03-31T12:22:32;11.10;;;2.47;;
38083;SDS011;23894;51.466;7.444;2023-03-31T12:24:39;9.50;;;2.08;;
38083;SDS011;23894;51.466;7.444;2023-03-31T12:31:23;7.22;;;2.00;;
38083;SDS011;23894;51.466;7.444;2023-03-31T12:33:39;8.48;;;2.35;;
38083;SDS011;23894;51.466;7.444;2023-03-31T12:35:52;9.43;;;2.05;;
38083;SDS011;23894;51.466;7.444;2023-03-31T12:42:48;10.00;;;2.47;;
38083;SDS011;23894;51.466;7.444;2023-03-31T12:49:46;9.15;;;2.63;;
38083;SDS011;23894;51.466;7.444;2023-03-31T12:52:01;10.32;;;2.40;;
38083;SDS011;23894;51.466;7.444;2023-03-31T12:56:16;7.43;;;2.22;;
38083;SDS011;23894;51.466;7.444;2023-03-31T13:00:29;12.02;;;3.05;;
38083;SDS011;23894;51.466;7.444;2023-03-31T13:02:32;11.23;;;3.88;;
38083;SDS011;23894;51.466;7.444;2023-03-31T13:04:45;11.20;;;3.08;;
38083;SDS011;23894;51.466;7.444;2023-03-31T13:06:59;13.18;;;3.30;;
38083;SDS011;23894;51.466;7.444;2023-03-31T13:11:14;14.20;;;3.65;;
38083;SDS011;23894;51.466;7.444;2023-03-31T13:13:16;11.63;;;3.22;;
38083;SDS011;23894;51.466;7.444;2023-03-31T13:15:19;13.77;;;4.05;;
38083;SDS011;23894;51.466;7.444;2023-03-31T13:17:25;14.30;;;4.05;;
38083;SDS011;23894;51.466;7.444;2023-03-31T13:19:34;15.68;;;3.50;;
38083;SDS011;23894;51.466;7.444;2023-03-31T13:22:19;11.60;;;3.33;;
38083;SDS011;23894;51.466;7.444;2023-03-31T13:24:06;12.05;;;4.10;;
38083;SDS011;23894;51.466;7.444;2023-03-31T13:26:32;11.82;;;3.15;;
38083;SDS011;23894;51.466;7.444;2023-03-31T13:32:40;13.20;;;3.20;;
38083;SDS011;23894;51.466;7.444;2023-03-31T13:48:37;16.33;;;3.75;;
38083;SDS011;23894;51.466;7.444;2023-03-31T14:06:57;10.55;;;2.65;;
38083;SDS011;23894;51.466;7.444;2023-03-31T14:09:11;9.05;;;3.20;;
38083;SDS011;23894;51.466;7.444;2023-03-31T14:11:16;9.80;;;3.20;;
38083;SDS011;23894;51.466;7.444;2023-03-31T14:13:23;11.73;;;3.63;;
38083;SDS011;23894;51.466;7.444;2023-03-31T14:15:25;8.48;;;3.20;;
38083;SDS011;23894;51.466;7.444;2023-03-31T14:17:30;10.07;;;2.72;;
38083;SDS011;23894;51.466;7.444;2023-03-31T14:21:50;13.25;;;2.95;;
38083;SDS011;23894;51.466;7.444;2023-03-31T14:38:05;9.52;;;2.60;;
38083;SDS011;23894;51.466;7.444;2023-03-31T14:40:12;10.20;;;2.63;;
38083;SDS011;23894;51.466;7.444;2023-03-31T14:42:16;9.85;;;2.60;;
38083;SDS011;23894;51.466;7.444;2023-03-31T14:44:19;6.88;;;2.55;;
38083;SDS011;23894;51.466;7.444;2023-03-31T14:46:21;9.85;;;2.38;;
38083;SDS011;23894;51.466;7.444;2023-03-31T14:48:25;8.13;;;2.35;;
38083;SDS011;23894;51.466;7.444;2023-03-31T14:50:28;9.27;;;2.30;;
38083;SDS011;23894;51.466;7.444;2023-03-31T14:52:32;10.57;;;2.60;;
38083;SDS011;23894;51.466;7.444;2023-03-31T14:54:35;11.02;;;2.65;;
38083;SDS011;23894;51.466;7.444;2023-03-31T14:56:38;7.05;;;2.13;;
38083;SDS011;23894;51.466;7.444;2023-03-31T14:58:46;8.25;;;2.30;;
38083;SDS011;23894;51.466;7.444;2023-03-31T15:00:49;9.60;;;2.45;;
38083;SDS011;23894;51.466;7.444;2023-03-31T15:02:52;10.60;;;2.78;;
38083;SDS011;23894;51.466;7.444;2023-03-31T15:04:54;7.53;;;1.83;;
38083;SDS011;23894;51.466;7.444;2023-03-31T15:06:58;9.20;;;2.45;;
38083;SDS011;23894;51.466;7.444;2023-03-31T15:09:03;7.28;;;2.25;;
38083;SDS011;23894;51.466;7.444;2023-03-31T15:11:05;6.47;;;2.10;;
38083;SDS011;23894;51.466;7.444;2023-03-31T15:13:33;9.57;;;2.25;;
38083;SDS011;23894;51.466;7.444;2023-03-31T15:15:34;9.90;;;2.25;;
38083;SDS011;23894;51.466;7.444;2023-03-31T15:17:40;11.48;;;2.33;;
38083;SDS011;23894;51.466;7.444;2023-03-31T15:19:43;10.50;;;1.98;;
38083;SDS011;23894;51.466;7.444;2023-03-31T15:21:46;6.85;;;2.10;;
38083;SDS011;23894;51.466;7.444;2023-03-31T15:23:55;9.25;;;2.08;;
38083;SDS011;23894;51.466;7.444;2023-03-31T15:26:07;8.75;;;2.33;;
38083;SDS011;23894;51.466;7.444;2023-03-31T15:28:11;9.25;;;2.50;;
38083;SDS011;23894;51.466;7.444;2023-03-31T15:30:18;7.72;;;1.92;;
38083;SDS011;23894;51.466;7.444;2023-03-31T15:32:29;7.00;;;2.15;;